Time;durP1;ratioP1;P1;durP2;ratioP2;P2;SDS_P1;SDS_P2;PMS_P1;PMS_P2;Temp;Humidity;BMP_temperature;BMP_pressure;BME280_temperature;BME280_humidity;BME280_pressure;Samples;Min_cycle;Max_cycle;Signal;HPM_P1;HPM_P2
2022/12/12 00:02:07;;;;;;;21.55;12.52;;;;;;;-2.41;76.56;98952.84;6215195;23;20425;-82
2022/12/12 00:04:32;;;;;;;19.37;10.67;;;;;;;-2.42;76.62;98956.31;6213255;23;20178;-82
2022/12/12 00:06:58;;;;;;;24.63;9.50;;;;;;;-2.40;76.82;98953.69;6212738;23;20436;-81
2022/12/12 00:09:23;;;;;;;17.60;9.30;;;;;;;-2.40;76.65;98946.84;6213813;23;20232;-82
2022/12/12 00:11:49;;;;;;;18.33;12.17;;;;;;;-2.43;76.43;98952.06;6187327;23;20261;-81
2022/12/12 00:14:14;;;;;;;28.47;12.43;;;;;;;-2.42;76.21;98951.19;6185776;23;20181;-82
2022/12/12 00:16:39;;;;;;;24.93;11.73;;;;;;;-2.43;76.10;98949.50;6210903;23;20585;-81
2022/12/12 00:19:05;;;;;;;16.30;9.07;;;;;;;-2.45;76.40;98946.09;6214002;23;20223;-83
2022/12/12 00:21:30;;;;;;;17.20;7.47;;;;;;;-2.47;76.13;98942.72;6214296;23;20173;-83
2022/12/12 00:23:56;;;;;;;13.70;8.20;;;;;;;-2.52;76.10;98947.94;6213646;23;20478;-81
2022/12/12 00:26:32;;;;;;;17.75;8.80;;;;;;;-2.54;76.06;98952.28;6213298;23;20644;-81
2022/12/12 00:28:59;;;;;;;16.00;9.15;;;;;;;-2.57;75.92;98946.34;6217679;23;20213;-84
2022/12/12 00:31:25;;;;;;;15.38;9.60;;;;;;;-2.64;76.17;98945.66;6232504;23;20177;-84
2022/12/12 00:33:51;;;;;;;21.98;12.07;;;;;;;-2.59;76.75;98958.38;6239853;23;20564;-82
2022/12/12 00:36:19;;;;;;;18.23;9.77;;;;;;;-2.52;76.45;98954.81;6242578;23;20181;-81
2022/12/12 00:38:45;;;;;;;17.75;8.75;;;;;;;-2.44;76.50;98963.22;6239449;23;20197;-81
2022/12/12 00:41:10;;;;;;;11.47;6.97;;;;;;;-2.38;76.33;98955.34;6239071;23;20700;-82
2022/12/12 00:43:36;;;;;;;20.90;9.53;;;;;;;-2.33;76.07;98966.41;6242546;23;20165;-82
2022/12/12 00:46:02;;;;;;;20.23;10.40;;;;;;;-2.33;75.98;98962.97;6238518;22;20435;-82
2022/12/12 00:48:28;;;;;;;16.60;10.02;;;;;;;-2.30;75.93;98970.63;6241105;23;20197;-82
2022/12/12 00:50:55;;;;;;;17.92;9.80;;;;;;;-2.26;76.10;98967.97;6238641;23;20256;-82
2022/12/12 00:53:20;;;;;;;19.13;8.85;;;;;;;-2.25;75.52;98967.06;6240492;23;20523;-82
2022/12/12 00:55:56;;;;;;;14.97;9.10;;;;;;;-2.24;75.49;98965.38;6241753;23;20223;-82
2022/12/12 00:58:21;;;;;;;20.08;9.50;;;;;;;-2.25;75.47;98981.66;6242623;23;20734;-82
2022/12/12 01:00:47;;;;;;;21.20;10.17;;;;;;;-2.29;75.48;98972.34;6239846;23;20181;-82
2022/12/12 01:03:12;;;;;;;17.03;10.27;;;;;;;-2.28;75.77;98974.00;6239061;23;20299;-82
2022/12/12 01:05:38;;;;;;;17.03;8.70;;;;;;;-2.29;75.44;98973.19;6244022;23;20466;-82
2022/12/12 01:08:03;;;;;;;17.87;7.30;;;;;;;-2.30;75.59;98975.78;6241389;23;20582;-82
2022/12/12 01:10:29;;;;;;;13.47;9.53;;;;;;;-2.34;75.22;98969.84;6241607;23;20180;-82
2022/12/12 01:12:54;;;;;;;19.40;8.13;;;;;;;-2.38;75.59;98967.38;6216498;23;20211;-83
2022/12/12 01:15:20;;;;;;;18.63;9.33;;;;;;;-2.41;75.61;98970.00;6239247;23;20268;-82
2022/12/12 01:17:45;;;;;;;15.97;8.10;;;;;;;-2.41;75.81;98972.59;6243402;23;20557;-83
2022/12/12 01:20:18;;;;;;;22.83;10.87;;;;;;;-2.43;75.39;98977.78;6244363;23;20408;-82
2022/12/12 01:22:44;;;;;;;17.13;9.63;;;;;;;-2.48;75.54;98983.00;6244537;23;20185;-82
2022/12/12 01:25:12;;;;;;;17.05;11.10;;;;;;;-2.55;75.50;98983.16;6242528;23;20177;-82
2022/12/12 01:27:38;;;;;;;19.30;9.65;;;;;;;-2.62;75.28;98985.03;6244165;23;20239;-82
2022/12/12 01:30:04;;;;;;;25.03;10.87;;;;;;;-2.67;75.54;98989.41;6243441;23;20428;-82
2022/12/12 01:32:30;;;;;;;10.18;6.65;;;;;;;-2.72;75.77;98986.94;6243576;23;20267;-82
2022/12/12 01:34:55;;;;;;;18.93;11.23;;;;;;;-2.71;75.51;98985.19;6242071;23;20424;-81
2022/12/12 01:37:21;;;;;;;14.40;8.83;;;;;;;-2.73;75.79;98992.09;6243919;23;20420;-82
2022/12/12 01:39:46;;;;;;;14.80;8.53;;;;;;;-2.73;76.35;98998.09;6245598;23;20180;-82
2022/12/12 01:42:15;;;;;;;10.43;7.70;;;;;;;-2.72;75.81;98998.94;6243107;23;20369;-82
2022/12/12 01:44:45;;;;;;;14.52;8.02;;;;;;;-2.72;75.96;99004.91;6177536;23;20271;-82
2022/12/12 01:47:16;;;;;;;14.98;8.23;;;;;;;-2.71;75.59;99001.47;6216193;23;20204;-81
2022/12/12 01:49:44;;;;;;;20.00;10.85;;;;;;;-2.83;75.24;99008.59;6244728;23;20192;-83
2022/12/12 01:52:16;;;;;;;18.40;10.20;;;;;;;-2.93;75.28;99010.47;6218439;23;20208;-82
2022/12/12 01:54:47;;;;;;;13.35;7.13;;;;;;;-2.94;75.52;99003.66;6242532;23;20506;-82
2022/12/12 01:57:19;;;;;;;18.60;9.60;;;;;;;-2.94;75.38;99003.66;6237152;23;20496;-83
2022/12/12 01:59:46;;;;;;;16.45;8.30;;;;;;;-2.92;75.62;99002.75;6241587;23;20211;-82
2022/12/12 02:02:11;;;;;;;19.38;8.63;;;;;;;-2.94;75.45;99004.50;6242596;23;20168;-82
2022/12/12 02:04:38;;;;;;;11.43;6.50;;;;;;;-2.95;75.43;99007.91;6243774;23;20173;-82
2022/12/12 02:07:03;;;;;;;12.57;8.48;;;;;;;-2.97;75.48;99009.69;6242329;23;20173;-82
2022/12/12 02:09:30;;;;;;;17.43;10.03;;;;;;;-3.00;75.42;99003.75;6240985;23;20223;-82
2022/12/12 02:11:57;;;;;;;32.58;14.00;;;;;;;-3.03;75.52;99004.63;6238905;23;20367;-82
2022/12/12 02:14:39;;;;;;;14.40;9.07;;;;;;;-3.08;75.21;99006.44;6243016;23;20172;-82
2022/12/12 02:17:17;;;;;;;18.45;8.30;;;;;;;-3.13;75.21;99013.41;6241442;23;20515;-82
2022/12/12 02:20:29;;;;;;;9.00;6.80;;;;;;;-3.21;75.29;99015.28;6241164;23;20464;-82
2022/12/12 02:23:13;;;;;;;10.48;6.45;;;;;;;-3.26;75.50;99017.91;6243411;23;20169;-82
2022/12/12 02:25:50;;;;;;;11.55;6.72;;;;;;;-3.24;75.27;99015.28;6241419;23;20236;-82
2022/12/12 02:28:31;;;;;;;11.30;7.65;;;;;;;-3.22;75.59;99013.56;6241804;23;20204;-83
2022/12/12 02:31:18;;;;;;;17.75;8.90;;;;;;;-3.16;75.40;99024.59;6242883;23;20181;-82
2022/12/12 02:33:52;;;;;;;16.52;9.07;;;;;;;-3.11;75.21;99019.34;6245143;23;20533;-81
2022/12/12 02:36:23;;;;;;;11.73;7.28;;;;;;;-3.12;74.97;99015.09;6238720;23;20188;-81
2022/12/12 02:39:03;;;;;;;16.67;9.70;;;;;;;-3.15;74.95;99010.00;6242129;23;20246;-83
2022/12/12 02:41:35;;;;;;;22.77;9.43;;;;;;;-3.21;75.01;99021.25;6243430;23;20578;-82
2022/12/12 02:44:18;;;;;;;17.10;8.95;;;;;;;-3.24;75.13;99020.44;6242885;23;20183;-82
2022/12/12 02:46:52;;;;;;;12.00;8.13;;;;;;;-3.30;75.05;99023.13;6215859;23;20697;-82
2022/12/12 02:49:27;;;;;;;14.18;8.85;;;;;;;-3.36;75.26;99022.34;6244004;23;20179;-82
2022/12/12 02:51:54;;;;;;;22.65;8.57;;;;;;;-3.36;75.31;99017.19;6216529;23;20279;-82
2022/12/12 02:54:21;;;;;;;19.88;9.13;;;;;;;-3.34;75.46;99022.31;6242643;23;20184;-82
2022/12/12 02:56:50;;;;;;;20.58;10.35;;;;;;;-3.30;75.54;99015.41;6242536;23;20188;-82
2022/12/12 02:59:31;;;;;;;20.95;9.90;;;;;;;-3.29;75.63;99027.38;6214455;23;20188;-82
2022/12/12 03:02:21;;;;;;;21.90;9.45;;;;;;;-3.25;75.43;99023.88;6242983;23;20197;-82
2022/12/12 03:08:22;;;;;;;15.75;8.02;;;;;;;-3.27;75.12;99013.63;6216710;23;20653;-81
2022/12/12 03:10:56;;;;;;;14.20;6.90;;;;;;;-3.26;75.25;99017.06;6215330;23;20172;-82
2022/12/12 03:13:40;;;;;;;17.05;9.32;;;;;;;-3.24;75.33;99023.88;6241807;23;20277;-82
2022/12/12 03:16:29;;;;;;;12.73;7.88;;;;;;;-3.25;75.40;99024.72;6240791;23;20190;-82
2022/12/12 03:19:24;;;;;;;15.68;7.35;;;;;;;-3.19;75.54;99021.19;6242161;23;20201;-82
2022/12/12 03:22:07;;;;;;;14.63;8.43;;;;;;;-3.15;75.52;99013.44;6214076;23;20531;-82
2022/12/12 03:24:47;;;;;;;15.38;8.38;;;;;;;-3.13;75.20;99015.97;6241593;23;20210;-82
2022/12/12 03:27:31;;;;;;;11.13;7.18;;;;;;;-3.12;75.11;99010.78;6242920;23;20382;-82
2022/12/12 03:30:03;;;;;;;13.43;7.75;;;;;;;-3.10;75.00;99018.50;6242813;23;20424;-82
2022/12/12 03:32:37;;;;;;;16.08;8.52;;;;;;;-3.17;74.43;99024.59;6242647;23;20205;-82
2022/12/12 03:35:11;;;;;;;20.40;8.32;;;;;;;-3.25;75.07;99019.59;6219627;23;20381;-82
2022/12/12 03:37:41;;;;;;;11.77;7.22;;;;;;;-3.26;75.02;99019.63;6222265;23;20275;-82
2022/12/12 03:40:15;;;;;;;21.70;9.32;;;;;;;-3.27;75.42;99016.19;6242436;23;20443;-83
2022/12/12 03:42:48;;;;;;;11.95;8.45;;;;;;;-3.22;75.42;99016.97;6201577;23;20270;-82
2022/12/12 03:45:26;;;;;;;14.65;6.68;;;;;;;-3.19;74.91;99016.06;6239227;23;20187;-82
2022/12/12 03:47:58;;;;;;;13.60;7.07;;;;;;;-3.23;74.72;99027.28;6242818;23;20195;-82
2022/12/12 03:50:33;;;;;;;17.38;8.55;;;;;;;-3.24;75.09;99028.13;6243355;23;20191;-82
2022/12/12 03:53:29;;;;;;;15.93;8.95;;;;;;;-3.23;75.13;99023.00;6243015;23;20200;-83
2022/12/12 03:56:11;;;;;;;22.70;8.65;;;;;;;-3.21;75.21;99028.13;6242896;23;20200;-82
2022/12/12 03:58:54;;;;;;;16.80;7.72;;;;;;;-3.24;74.57;99020.44;6243750;23;20218;-82
2022/12/12 04:01:26;;;;;;;13.90;7.53;;;;;;;-3.26;74.70;99019.63;6243285;23;20885;-82
2022/12/12 04:04:27;;;;;;;19.00;7.90;;;;;;;-3.29;74.85;99027.38;6241317;23;20174;-82
2022/12/12 04:07:15;;;;;;;18.73;8.10;;;;;;;-3.33;74.95;99022.28;6221416;22;20179;-82
2022/12/12 04:12:59;;;;;;;13.95;7.30;;;;;;;-3.33;75.18;99032.56;6242155;23;20283;-82
2022/12/12 04:15:38;;;;;;;14.27;7.15;;;;;;;-3.31;75.06;99029.97;6243341;23;20179;-83
2022/12/12 04:18:25;;;;;;;17.17;7.55;;;;;;;-3.30;75.05;99031.66;6243679;23;20204;-83
2022/12/12 04:24:11;;;;;;;20.40;8.48;;;;;;;-3.26;74.41;99030.75;6242821;23;20191;-82
2022/12/12 04:26:45;;;;;;;13.57;7.05;;;;;;;-3.35;74.47;99030.88;6216084;23;20390;-83
2022/12/12 04:29:10;;;;;;;12.25;7.35;;;;;;;-3.40;74.73;99038.69;6241733;23;20261;-82
2022/12/12 04:31:48;;;;;;;14.70;8.40;;;;;;;-3.37;75.04;99046.34;6241785;23;20176;-83
2022/12/12 04:34:26;;;;;;;22.85;11.05;;;;;;;-3.34;74.95;99041.16;6239609;23;20899;-83
2022/12/12 04:36:52;;;;;;;20.52;9.57;;;;;;;-3.31;74.98;99052.25;6252642;23;20180;-83
2022/12/12 04:39:19;;;;;;;14.15;8.55;;;;;;;-3.29;75.08;99047.91;6226581;23;20211;-83
2022/12/12 04:41:47;;;;;;;17.48;8.63;;;;;;;-3.29;74.93;99047.91;6223160;23;20181;-82
2022/12/12 04:44:16;;;;;;;13.02;8.60;;;;;;;-3.33;74.87;99047.97;6251837;23;20303;-82
2022/12/12 04:46:43;;;;;;;17.50;8.50;;;;;;;-3.38;74.92;99042.06;6252501;23;20179;-83
2022/12/12 04:49:18;;;;;;;21.40;8.35;;;;;;;-3.45;75.00;99039.63;6253644;23;20192;-83
2022/12/12 04:51:47;;;;;;;14.98;7.88;;;;;;;-3.50;75.36;99044.84;6225499;23;20243;-82
2022/12/12 04:54:21;;;;;;;16.10;9.55;;;;;;;-3.52;75.39;99054.28;6253791;23;20466;-83
2022/12/12 04:56:52;;;;;;;15.52;7.38;;;;;;;-3.58;75.47;99038.97;6249407;23;20175;-82
2022/12/12 04:59:18;;;;;;;19.48;7.60;;;;;;;-3.63;75.67;99048.47;6242633;23;20173;-82
2022/12/12 05:01:54;;;;;;;14.57;8.95;;;;;;;-3.59;75.93;99052.69;6242353;23;20387;-83
2022/12/12 05:04:29;;;;;;;22.40;11.55;;;;;;;-3.50;75.79;99041.44;6243006;23;20461;-83
2022/12/12 05:07:03;;;;;;;17.48;8.13;;;;;;;-3.51;75.87;99038.03;6218952;23;20934;-83
2022/12/12 05:09:29;;;;;;;16.38;9.65;;;;;;;-3.47;75.74;99039.66;6245241;23;20179;-83
2022/12/12 05:11:54;;;;;;;18.33;7.37;;;;;;;-3.44;75.72;99043.88;6246021;23;20590;-83
2022/12/12 05:14:20;;;;;;;17.93;8.33;;;;;;;-3.43;75.69;99051.56;6245973;23;20188;-84
2022/12/12 05:16:53;;;;;;;18.13;8.37;;;;;;;-3.37;75.53;99054.03;6243024;23;20177;-83
2022/12/12 05:19:18;;;;;;;22.75;9.45;;;;;;;-3.35;75.53;99057.44;6244070;23;20177;-83
2022/12/12 05:21:44;;;;;;;16.53;9.87;;;;;;;-3.29;75.38;99059.06;6247387;23;20173;-83
2022/12/12 05:24:10;;;;;;;18.87;8.60;;;;;;;-3.26;75.22;99059.00;6251951;23;20420;-83
2022/12/12 05:26:36;;;;;;;15.63;7.13;;;;;;;-3.22;75.14;99070.91;6240972;23;20404;-83
2022/12/12 05:29:03;;;;;;;21.37;10.93;;;;;;;-3.18;75.21;99058.88;6239140;23;20358;-81
2022/12/12 05:31:29;;;;;;;17.65;8.57;;;;;;;-3.15;74.69;99063.97;6238979;23;20168;-83
2022/12/12 05:33:54;;;;;;;21.07;11.20;;;;;;;-3.13;74.95;99069.94;6242097;23;20411;-83
2022/12/12 05:36:20;;;;;;;19.00;7.97;;;;;;;-3.13;74.94;99072.50;6244167;23;20188;-82
2022/12/12 05:38:45;;;;;;;22.23;10.80;;;;;;;-3.10;74.89;99079.31;6245332;23;20193;-83
2022/12/12 05:41:16;;;;;;;13.20;8.65;;;;;;;-3.10;74.78;99080.16;6245680;23;20404;-83
2022/12/12 05:43:42;;;;;;;12.27;8.88;;;;;;;-3.12;74.68;99081.88;6248577;23;20177;-83
2022/12/12 05:46:08;;;;;;;13.87;7.70;;;;;;;-3.14;74.79;99079.31;6243841;23;20181;-82
2022/12/12 05:48:33;;;;;;;16.67;7.90;;;;;;;-3.16;74.77;99080.22;6245181;23;20254;-82
2022/12/12 05:51:01;;;;;;;15.60;9.17;;;;;;;-3.17;74.87;99088.81;6249198;23;20465;-82
2022/12/12 05:53:27;;;;;;;22.90;10.45;;;;;;;-3.14;74.93;99084.47;6246997;23;20201;-82
2022/12/12 05:55:52;;;;;;;19.08;10.18;;;;;;;-3.10;74.73;99092.16;6246657;23;20182;-82
2022/12/12 05:58:18;;;;;;;18.03;9.77;;;;;;;-3.13;74.68;99093.03;6247879;23;20201;-82
2022/12/12 06:00:48;;;;;;;18.80;8.27;;;;;;;-3.18;74.58;99093.09;6246568;23;20224;-82
2022/12/12 06:03:14;;;;;;;19.35;9.82;;;;;;;-3.18;74.91;99087.13;6247702;23;20159;-82
2022/12/12 06:05:39;;;;;;;17.47;9.03;;;;;;;-3.17;74.84;99099.94;6245818;23;20191;-82
2022/12/12 06:08:04;;;;;;;16.30;9.03;;;;;;;-3.12;75.03;99097.28;6246517;23;20199;-82
2022/12/12 06:10:30;;;;;;;20.40;10.30;;;;;;;-3.08;74.52;99095.50;6218398;23;20176;-82
2022/12/12 06:12:55;;;;;;;12.23;6.67;;;;;;;-3.07;74.66;99099.81;6247077;23;20301;-81
2022/12/12 06:15:21;;;;;;;10.77;4.83;;;;;;;-3.12;74.38;99082.72;6245983;23;20196;-82
2022/12/12 06:17:46;;;;;;;22.83;6.33;;;;;;;-3.18;74.30;99084.56;6244345;23;20231;-82
2022/12/12 06:20:12;;;;;;;14.83;8.23;;;;;;;-3.24;74.82;99089.78;6219505;23;20175;-82
2022/12/12 06:22:37;;;;;;;21.63;9.73;;;;;;;-3.22;75.08;99080.34;6219795;23;20178;-82
2022/12/12 06:25:03;;;;;;;14.57;7.17;;;;;;;-3.19;74.55;99091.41;6246950;23;20198;-82
2022/12/12 06:30:08;;;;;;;18.30;7.95;;;;;;;-3.28;74.67;99099.25;6198312;23;20264;-82
2022/12/12 06:32:33;;;;;;;14.43;8.27;;;;;;;-3.28;74.73;99101.00;6205737;23;20205;-82
2022/12/12 06:35:01;;;;;;;13.23;5.97;;;;;;;-3.27;74.69;99097.53;6214118;23;20176;-83
2022/12/12 06:37:26;;;;;;;14.73;8.32;;;;;;;-3.23;74.81;99106.91;6213863;23;20344;-82
2022/12/12 06:39:52;;;;;;;14.37;7.30;;;;;;;-3.23;74.79;99102.59;6212912;23;20196;-82
2022/12/12 06:42:18;;;;;;;16.38;8.07;;;;;;;-3.24;74.49;99108.63;6213902;23;20177;-82
2022/12/12 06:44:43;;;;;;;12.30;7.00;;;;;;;-3.25;75.02;99103.50;6213388;23;20637;-81
2022/12/12 06:47:09;;;;;;;15.30;9.17;;;;;;;-3.21;74.96;99112.88;6213376;23;20160;-82
2022/12/12 06:49:35;;;;;;;17.37;8.23;;;;;;;-3.15;74.70;99120.47;6213942;23;20200;-82
2022/12/12 06:52:00;;;;;;;14.88;7.85;;;;;;;-3.13;74.66;99122.16;6211771;23;20283;-81
2022/12/12 06:54:26;;;;;;;17.30;5.70;;;;;;;-3.18;74.28;99117.97;6211440;23;20223;-82
2022/12/12 06:56:51;;;;;;;10.90;6.27;;;;;;;-3.22;74.42;99121.44;6213574;23;20173;-82
2022/12/12 06:59:17;;;;;;;14.57;7.80;;;;;;;-3.26;74.63;99123.22;6211610;23;20276;-84
2022/12/12 07:01:43;;;;;;;11.70;6.80;;;;;;;-3.25;74.80;99121.47;6212478;23;20235;-83
2022/12/12 07:04:10;;;;;;;15.77;8.60;;;;;;;-3.21;74.69;99129.13;6213353;23;20170;-81
2022/12/12 07:06:36;;;;;;;15.23;7.35;;;;;;;-3.18;74.39;99134.22;6237480;23;20177;-81
2022/12/12 07:09:01;;;;;;;14.47;5.77;;;;;;;-3.16;74.35;99134.16;6212473;23;20198;-82
2022/12/12 07:11:27;;;;;;;13.02;8.55;;;;;;;-3.15;73.92;99133.31;6214219;23;20181;-81
2022/12/12 07:13:55;;;;;;;26.40;10.80;;;;;;;-3.19;74.29;99136.78;6214234;23;20251;-82
2022/12/12 07:16:20;;;;;;;17.40;10.27;;;;;;;-3.18;74.34;99136.78;6213983;23;20408;-81
2022/12/12 07:18:46;;;;;;;10.47;6.90;;;;;;;-3.16;74.04;99142.75;6220381;23;20454;-81
2022/12/12 07:21:15;;;;;;;13.33;7.40;;;;;;;-3.14;74.14;99138.41;6224614;23;20200;-84
2022/12/12 07:23:40;;;;;;;17.00;9.18;;;;;;;-3.16;73.89;99134.16;6222852;23;20412;-81
2022/12/12 07:26:11;;;;;;;17.33;7.13;;;;;;;-3.23;73.82;99138.56;6221330;23;20260;-81
2022/12/12 07:28:37;;;;;;;15.98;8.35;;;;;;;-3.26;74.04;99140.34;6213822;23;20240;-81
2022/12/12 07:31:07;;;;;;;18.30;6.80;;;;;;;-3.25;74.23;99145.44;6213839;23;20186;-82
2022/12/12 07:33:32;;;;;;;14.35;7.90;;;;;;;-3.22;74.03;99142.81;6213194;23;20766;-79
2022/12/12 07:35:58;;;;;;;13.93;6.70;;;;;;;-3.23;73.86;99142.84;6212897;23;20208;-81
2022/12/12 07:38:24;;;;;;;12.20;5.20;;;;;;;-3.21;74.05;99147.09;6214251;23;20252;-80
2022/12/12 07:40:50;;;;;;;8.75;6.30;;;;;;;-3.23;73.72;99145.44;6215209;23;20180;-81
2022/12/12 07:43:15;;;;;;;10.60;6.80;;;;;;;-3.26;73.90;99154.03;6215484;23;20203;-80
2022/12/12 07:45:45;;;;;;;7.17;5.97;;;;;;;-3.22;74.05;99147.97;6214878;23;20202;-83
2022/12/12 07:48:12;;;;;;;16.98;8.27;;;;;;;-3.14;73.76;99151.25;6215897;23;20269;-83
2022/12/12 07:50:38;;;;;;;18.85;9.30;;;;;;;-3.06;73.98;99158.84;6214112;23;20183;-83
2022/12/12 07:53:04;;;;;;;12.45;6.85;;;;;;;-2.99;73.55;99160.47;6215080;23;20209;-81
2022/12/12 07:55:30;;;;;;;15.80;8.20;;;;;;;-2.92;73.56;99159.50;6217136;23;20185;-81
2022/12/12 07:57:56;;;;;;;19.30;7.77;;;;;;;-2.89;73.16;99166.28;6221147;23;20451;-81
2022/12/12 08:00:21;;;;;;;14.60;8.17;;;;;;;-2.94;73.13;99162.97;6210722;23;20420;-83
2022/12/12 08:02:48;;;;;;;15.43;8.13;;;;;;;-2.96;73.22;99169.84;6210518;23;20260;-80
2022/12/12 08:05:14;;;;;;;13.52;7.25;;;;;;;-2.98;73.35;99166.44;6210191;23;20274;-79
2022/12/12 08:07:39;;;;;;;18.35;8.52;;;;;;;-3.00;73.41;99175.88;6209681;23;20241;-81
2022/12/12 08:10:05;;;;;;;13.07;8.63;;;;;;;-3.02;73.26;99178.50;6209781;23;20260;-82
2022/12/12 08:12:32;;;;;;;12.88;7.10;;;;;;;-2.99;73.38;99180.16;6207375;23;20317;-82
2022/12/12 08:14:57;;;;;;;10.85;6.60;;;;;;;-2.96;73.50;99173.25;6208776;23;20184;-80
2022/12/12 08:17:23;;;;;;;24.03;12.27;;;;;;;-2.93;73.35;99180.06;6211328;23;20208;-82
2022/12/12 08:19:49;;;;;;;15.43;6.10;;;;;;;-2.92;73.24;99172.34;6207224;23;20272;-81
2022/12/12 08:22:14;;;;;;;14.30;7.03;;;;;;;-2.92;73.20;99174.03;6208220;23;20604;-81
2022/12/12 08:24:40;;;;;;;14.07;7.50;;;;;;;-2.90;73.32;99178.28;6208768;23;20408;-81
2022/12/12 08:27:05;;;;;;;11.00;6.20;;;;;;;-2.85;73.48;99183.34;6209229;23;20181;-82
2022/12/12 08:29:31;;;;;;;11.70;5.07;;;;;;;-2.78;73.30;99191.81;6215132;23;20311;-81
2022/12/12 08:31:56;;;;;;;9.20;5.97;;;;;;;-2.75;73.01;99187.47;6216051;23;20256;-83
2022/12/12 08:34:22;;;;;;;14.40;7.10;;;;;;;-2.73;72.86;99190.88;6215048;23;20553;-81
2022/12/12 08:36:48;;;;;;;10.57;7.23;;;;;;;-2.73;72.96;99196.03;6210918;23;20240;-83
2022/12/12 08:39:15;;;;;;;14.17;9.00;;;;;;;-2.69;72.91;99196.81;6210160;23;20263;-83
2022/12/12 08:41:42;;;;;;;10.68;6.30;;;;;;;-2.66;73.11;99186.47;6210410;23;20439;-81
2022/12/12 08:44:10;;;;;;;17.42;10.77;;;;;;;-2.63;72.76;99196.69;6211217;23;20203;-83
2022/12/12 08:46:37;;;;;;;13.30;8.48;;;;;;;-2.58;72.88;99204.34;6210096;23;20627;-81
2022/12/12 08:49:02;;;;;;;18.00;8.65;;;;;;;-2.54;72.83;99203.41;6210549;23;20201;-80
2022/12/12 08:51:28;;;;;;;16.53;9.23;;;;;;;-2.57;72.67;99206.88;6212436;23;20169;-81
2022/12/12 08:53:53;;;;;;;19.10;10.83;;;;;;;-2.61;72.73;99207.81;6210525;23;20726;-83
2022/12/12 08:56:21;;;;;;;19.00;10.55;;;;;;;-2.82;73.11;99197.88;6210762;23;20181;-83
2022/12/12 08:58:47;;;;;;;13.10;9.15;;;;;;;-2.92;73.18;99202.31;6208985;23;20752;-80
2022/12/12 09:01:16;;;;;;;18.25;8.18;;;;;;;-2.91;73.15;99199.72;6211860;23;20204;-81
2022/12/12 09:03:41;;;;;;;15.85;9.05;;;;;;;-2.87;73.02;99208.22;6210859;23;20393;-80
2022/12/12 09:06:09;;;;;;;18.13;8.00;;;;;;;-2.83;73.19;99203.91;6211437;23;20177;-81
2022/12/12 09:08:34;;;;;;;13.82;8.32;;;;;;;-2.79;73.16;99202.97;6211178;23;20215;-81
2022/12/12 09:11:00;;;;;;;17.10;8.43;;;;;;;-2.76;72.79;99203.75;6211931;23;20364;-83
2022/12/12 09:13:25;;;;;;;17.73;8.07;;;;;;;-2.74;72.82;99211.47;6210627;23;20232;-81
2022/12/12 09:15:52;;;;;;;18.02;7.30;;;;;;;-2.72;72.56;99209.72;6211897;23;20172;-81
2022/12/12 09:18:18;;;;;;;13.97;7.57;;;;;;;-2.69;72.80;99217.38;6211594;23;20192;-83
2022/12/12 09:20:51;;;;;;;21.63;8.55;;;;;;;-2.70;72.34;99213.09;6212262;23;20547;-82
2022/12/12 09:23:17;;;;;;;18.92;9.98;;;;;;;-2.70;72.42;99213.97;6211099;23;20195;-82
2022/12/12 09:25:43;;;;;;;11.30;7.47;;;;;;;-2.67;71.91;99215.63;6186999;23;20213;-82
2022/12/12 09:28:14;;;;;;;11.00;5.73;;;;;;;-2.65;71.83;99211.28;6209224;23;20220;-81
2022/12/12 09:30:40;;;;;;;15.10;7.18;;;;;;;-2.65;71.84;99198.44;6211147;23;20437;-81
2022/12/12 09:33:06;;;;;;;17.70;9.02;;;;;;;-2.82;72.12;99200.47;6210209;23;20288;-80
2022/12/12 09:35:32;;;;;;;16.73;5.30;;;;;;;-2.84;71.73;99204.75;6211679;23;20184;-81
2022/12/12 09:37:58;;;;;;;14.20;7.60;;;;;;;-2.81;72.00;99194.44;6211238;23;20221;-81
2022/12/12 09:40:33;;;;;;;10.70;5.93;;;;;;;-2.75;71.87;99199.50;6213425;23;20188;-81
2022/12/12 09:42:59;;;;;;;16.15;8.77;;;;;;;-2.76;71.74;99200.34;6213379;23;20173;-81
2022/12/12 09:45:26;;;;;;;13.70;7.45;;;;;;;-2.78;71.82;99200.38;6212563;23;20194;-82
2022/12/12 09:47:59;;;;;;;14.25;7.07;;;;;;;-2.75;71.50;99200.34;6212816;23;20197;-82
2022/12/12 09:50:35;;;;;;;15.68;7.00;;;;;;;-2.73;71.50;99202.88;6213704;23;20180;-81
2022/12/12 09:53:09;;;;;;;10.00;6.68;;;;;;;-2.69;71.56;99207.09;6211759;23;20221;-83
2022/12/12 09:55:53;;;;;;;12.90;7.70;;;;;;;-2.68;71.68;99196.78;6211920;23;20174;-83
2022/12/12 09:58:33;;;;;;;12.02;7.93;;;;;;;-2.61;71.47;99192.38;6211692;23;20197;-81
2022/12/12 10:01:24;;;;;;;11.35;6.72;;;;;;;-2.56;71.08;99195.72;6212531;23;20180;-80
2022/12/12 10:04:18;;;;;;;15.48;9.18;;;;;;;-2.51;71.30;99187.91;6211117;23;20409;-82
2022/12/12 10:07:00;;;;;;;16.08;10.32;;;;;;;-2.46;71.20;99184.41;6209699;23;20234;-81
2022/12/12 10:09:46;;;;;;;14.68;6.35;;;;;;;-2.38;71.43;99178.28;6212297;23;20247;-81
2022/12/12 10:12:15;;;;;;;10.32;6.97;;;;;;;-2.29;71.06;99183.28;6211064;23;20188;-82
2022/12/12 10:14:47;;;;;;;20.63;9.93;;;;;;;-2.19;71.01;99181.34;6213129;23;20187;-80
2022/12/12 10:17:32;;;;;;;16.55;7.47;;;;;;;-2.14;70.47;99180.38;6213360;23;20182;-82
2022/12/12 10:20:03;;;;;;;12.10;7.85;;;;;;;-2.10;70.61;99184.59;6212405;23;20226;-82
2022/12/12 10:22:42;;;;;;;15.35;7.10;;;;;;;-2.05;70.38;99185.38;6212658;23;20170;-80
2022/12/12 10:25:27;;;;;;;15.63;6.80;;;;;;;-2.01;70.39;99183.56;6212124;23;20179;-82
2022/12/12 10:28:00;;;;;;;16.58;8.80;;;;;;;-2.02;70.03;99182.75;6213650;23;20185;-81
2022/12/12 10:30:29;;;;;;;16.00;7.57;;;;;;;-2.00;70.29;99172.41;6213810;23;20211;-80
2022/12/12 10:33:36;;;;;;;20.38;8.63;;;;;;;-1.94;70.38;99180.03;6214190;23;20212;-82
2022/12/12 10:36:33;;;;;;;11.75;5.78;;;;;;;-1.83;69.99;99188.38;6214197;23;20180;-81
2022/12/12 10:38:59;;;;;;;12.35;6.93;;;;;;;-1.80;69.70;99187.47;6187647;23;20212;-80
2022/12/12 10:41:29;;;;;;;11.07;7.83;;;;;;;-1.79;69.77;99184.84;6217485;23;20184;-80
2022/12/12 10:44:10;;;;;;;11.18;5.63;;;;;;;-1.77;69.51;99189.13;6214132;23;20170;-81
2022/12/12 10:46:58;;;;;;;13.02;6.70;;;;;;;-1.74;69.60;99192.47;6212382;23;20170;-81
2022/12/12 10:49:24;;;;;;;21.60;8.60;;;;;;;-1.72;69.42;99190.72;6214102;23;20220;-81
2022/12/12 10:51:50;;;;;;;19.00;8.90;;;;;;;-1.70;69.40;99194.13;6214556;23;20670;-83
2022/12/12 10:54:21;;;;;;;13.13;6.95;;;;;;;-1.70;69.54;99199.28;6215316;23;20622;-80
2022/12/12 10:57:05;;;;;;;15.43;8.05;;;;;;;-1.72;69.67;99190.72;6216671;23;20178;-81
2022/12/12 10:59:37;;;;;;;18.10;12.80;;;;;;;-1.69;70.03;99182.09;6213823;23;20384;-81
2022/12/12 11:02:02;;;;;;;14.93;9.23;;;;;;;-1.66;69.69;99176.88;6214956;23;20179;-81
2022/12/12 11:04:30;;;;;;;14.20;7.30;;;;;;;-1.68;69.55;99186.34;6215979;23;20232;-80
2022/12/12 11:06:59;;;;;;;13.65;8.10;;;;;;;-1.71;69.58;99182.13;6216856;23;20616;-81
2022/12/12 11:09:27;;;;;;;17.20;7.43;;;;;;;-1.80;69.52;99182.31;6213045;23;20725;-81
2022/12/12 11:11:56;;;;;;;14.13;7.85;;;;;;;-1.83;69.88;99182.38;6213772;23;20170;-81
2022/12/12 11:14:30;;;;;;;21.80;12.00;;;;;;;-1.83;69.89;99182.38;6216794;23;20374;-80
2022/12/12 11:16:56;;;;;;;11.88;5.57;;;;;;;-1.85;69.39;99184.97;6216449;23;20193;-81
2022/12/12 11:19:24;;;;;;;21.10;10.00;;;;;;;-1.86;69.65;99185.03;6213715;23;20205;-80
2022/12/12 11:21:52;;;;;;;14.63;8.98;;;;;;;-1.86;69.59;99175.56;6212401;23;20382;-83
2022/12/12 11:24:22;;;;;;;15.57;8.50;;;;;;;-1.82;69.34;99174.59;6212779;23;20177;-81
2022/12/12 11:26:56;;;;;;;24.02;8.63;;;;;;;-1.80;69.13;99165.13;6213674;23;20235;-81
2022/12/12 11:29:45;;;;;;;11.90;8.15;;;;;;;-1.77;69.31;99171.09;6211295;23;20268;-81
2022/12/12 11:32:15;;;;;;;10.98;8.15;;;;;;;-1.75;69.21;99162.47;6212393;23;20198;-80
2022/12/12 11:34:44;;;;;;;12.48;7.30;;;;;;;-1.74;69.00;99164.16;6211707;23;20208;-81
2022/12/12 11:37:16;;;;;;;14.60;7.57;;;;;;;-1.75;68.99;99166.78;6206519;23;20231;-81
2022/12/12 11:39:44;;;;;;;15.10;8.77;;;;;;;-1.76;68.90;99157.34;6210254;23;20193;-81
2022/12/12 11:42:12;;;;;;;15.68;9.85;;;;;;;-1.78;69.34;99147.09;6213870;23;20167;-82
2022/12/12 11:44:38;;;;;;;17.98;8.23;;;;;;;-1.80;69.26;99151.41;6212948;23;20177;-82
2022/12/12 11:47:25;;;;;;;13.20;8.05;;;;;;;-1.80;69.35;99147.13;6213953;23;20384;-80
2022/12/12 11:49:58;;;;;;;15.43;7.93;;;;;;;-1.78;69.06;99141.94;6220478;23;20193;-81
2022/12/12 11:52:32;;;;;;;18.20;9.02;;;;;;;-1.75;68.89;99134.16;6219699;23;20203;-82